Time;durP1;ratioP1;P1;durP2;ratioP2;P2;SDS_P1;SDS_P2;PMS_P1;PMS_P2;Temp;Humidity;BMP_temperature;BMP_pressure;BME280_temperature;BME280_humidity;BME280_pressure;Samples;Min_cycle;Max_cycle;Signal;HPM_P1;HPM_P2
2021/11/18 00:00:52;;;;;;;23.88;6.45;;;7.30;99.90;;;;;;5040445;28;20037;-76
2021/11/18 00:03:21;;;;;;;16.20;3.90;;;7.30;99.90;;;;;;5040222;28;20119;-75
2021/11/18 00:05:48;;;;;;;22.35;4.80;;;7.30;99.90;;;;;;5033049;28;20171;-75
2021/11/18 00:08:14;;;;;;;18.08;4.65;;;7.30;99.90;;;;;;5043918;28;20680;-76
2021/11/18 00:10:51;;;;;;;22.63;5.43;;;7.40;99.90;;;;;;5052583;28;20027;-77
2021/11/18 00:13:20;;;;;;;14.07;4.43;;;7.50;99.90;;;;;;5052615;28;20118;-75
2021/11/18 00:15:46;;;;;;;14.32;4.70;;;7.50;99.90;;;;;;5051539;28;20027;-75
2021/11/18 00:18:19;;;;;;;29.60;5.40;;;7.40;99.90;;;;;;5052047;28;20020;-75
2021/11/18 00:20:54;;;;;;;15.75;4.43;;;7.50;99.90;;;;;;5052237;28;20014;-77
2021/11/18 00:23:21;;;;;;;21.30;5.35;;;7.50;99.90;;;;;;5051408;28;20092;-76
2021/11/18 00:25:49;;;;;;;16.25;4.25;;;7.40;99.90;;;;;;5052262;28;20113;-77
2021/11/18 00:28:18;;;;;;;17.55;3.83;;;7.50;99.90;;;;;;5051590;28;20456;-77
2021/11/18 00:30:44;;;;;;;15.75;4.85;;;7.40;99.90;;;;;;5052263;28;20019;-77
2021/11/18 00:33:11;;;;;;;19.52;5.15;;;7.50;99.90;;;;;;5051987;28;20055;-74
2021/11/18 00:35:37;;;;;;;19.75;6.05;;;7.50;99.90;;;;;;5051927;28;20428;-76
2021/11/18 00:38:03;;;;;;;17.38;5.03;;;7.50;99.90;;;;;;5051960;28;20028;-76
2021/11/18 00:40:34;;;;;;;28.85;5.30;;;7.50;99.90;;;;;;5052593;28;20052;-76
2021/11/18 00:42:59;;;;;;;;;;;7.60;99.90;;;;;;5051767;28;20489;-78
2021/11/18 00:45:28;;;;;;;18.98;4.57;;;7.60;99.90;;;;;;5052341;28;19931;-78
2021/11/18 00:47:54;;;;;;;19.55;4.68;;;7.70;99.90;;;;;;5051562;28;20029;-75
2021/11/18 00:50:24;;;;;;;25.77;4.68;;;7.80;99.90;;;;;;5051054;28;20029;-75
2021/11/18 00:52:50;;;;;;;21.85;5.50;;;7.80;99.90;;;;;;5052123;28;20056;-76
2021/11/18 00:55:16;;;;;;;25.98;5.78;;;7.80;99.90;;;;;;5051295;28;20353;-76
2021/11/18 00:57:41;;;;;;;15.45;4.72;;;7.80;99.90;;;;;;5051336;28;20021;-76
2021/11/18 01:00:10;;;;;;;12.27;4.38;;;7.90;99.90;;;;;;5051090;28;20518;-76
2021/11/18 01:02:36;;;;;;;15.30;4.50;;;7.80;99.90;;;;;;5051566;28;20473;-76
2021/11/18 01:05:03;;;;;;;16.42;4.60;;;7.90;99.90;;;;;;5043777;28;20048;-77
2021/11/18 01:07:28;;;;;;;16.95;5.00;;;7.80;99.90;;;;;;5051195;28;20501;-76
2021/11/18 01:09:54;;;;;;;23.35;4.25;;;7.80;99.90;;;;;;5051807;28;20024;-76
2021/11/18 01:12:23;;;;;;;13.10;4.57;;;7.70;99.90;;;;;;5052142;28;20108;-76
2021/11/18 01:14:49;;;;;;;20.80;4.90;;;7.70;99.90;;;;;;5052604;28;20021;-77
2021/11/18 01:17:15;;;;;;;17.55;4.20;;;7.60;99.90;;;;;;5051412;28;20025;-75
2021/11/18 01:19:41;;;;;;;18.58;6.13;;;7.60;99.90;;;;;;5052145;28;20044;-76
2021/11/18 01:22:07;;;;;;;21.55;4.95;;;7.50;99.90;;;;;;5055060;28;20032;-78
2021/11/18 01:24:37;;;;;;;19.45;4.75;;;7.60;99.90;;;;;;5054288;28;20025;-77
2021/11/18 01:27:03;;;;;;;17.23;5.13;;;7.50;99.90;;;;;;5054863;28;20389;-76
2021/11/18 01:29:29;;;;;;;20.90;5.30;;;7.60;99.90;;;;;;5055134;28;20025;-77
2021/11/18 01:31:54;;;;;;;27.48;5.88;;;7.70;99.90;;;;;;5054094;28;20028;-77
2021/11/18 01:34:20;;;;;;;27.30;5.07;;;7.70;99.90;;;;;;5054729;28;20550;-76
2021/11/18 01:36:46;;;;;;;24.48;4.50;;;7.70;99.90;;;;;;5055011;28;20021;-77
2021/11/18 01:39:12;;;;;;;20.50;4.85;;;7.60;99.90;;;;;;5053801;28;20079;-76
2021/11/18 01:41:38;;;;;;;27.58;4.90;;;7.60;99.90;;;;;;5054639;28;20056;-74
2021/11/18 01:44:11;;;;;;;17.02;4.30;;;7.50;99.90;;;;;;5055315;28;20565;-76
2021/11/18 01:46:37;;;;;;;17.23;4.95;;;7.50;99.90;;;;;;5054729;28;20021;-77
2021/11/18 01:49:05;;;;;;;16.30;5.10;;;7.40;99.90;;;;;;5055674;28;20033;-77
2021/11/18 01:51:34;;;;;;;26.33;5.45;;;7.40;99.90;;;;;;5055053;28;20079;-77
2021/11/18 01:54:02;;;;;;;18.88;4.10;;;7.40;99.90;;;;;;5054350;28;20021;-76
2021/11/18 01:56:32;;;;;;;18.38;4.07;;;7.50;99.90;;;;;;5055223;28;20388;-76
2021/11/18 01:59:03;;;;;;;23.63;6.10;;;7.40;99.90;;;;;;5055194;28;20067;-77
2021/11/18 02:01:28;;;;;;;18.58;5.78;;;7.40;99.90;;;;;;5054988;28;20060;-76
2021/11/18 02:03:54;;;;;;;18.92;4.40;;;7.40;99.90;;;;;;5054991;28;20422;-77
2021/11/18 02:06:29;;;;;;;21.83;4.95;;;7.40;99.90;;;;;;5054198;28;20052;-77
2021/11/18 02:08:55;;;;;;;23.17;5.93;;;7.50;99.90;;;;;;5053157;28;20025;-76
2021/11/18 02:11:34;;;;;;;22.58;5.38;;;7.50;99.90;;;;;;5054458;28;20067;-76
2021/11/18 02:14:02;;;;;;;25.60;5.57;;;7.50;99.90;;;;;;5053619;28;20051;-76
2021/11/18 02:16:29;;;;;;;25.33;7.10;;;7.50;99.90;;;;;;5054811;28;20381;-76
2021/11/18 02:18:55;;;;;;;28.35;5.57;;;7.50;99.90;;;;;;5053894;28;20115;-77
2021/11/18 02:21:22;;;;;;;23.60;5.90;;;7.60;99.90;;;;;;5054324;28;20021;-76
2021/11/18 02:24:09;;;;;;;26.38;6.88;;;7.60;99.90;;;;;;5054631;28;20025;-76
2021/11/18 02:26:35;;;;;;;22.00;6.53;;;7.60;99.90;;;;;;5054718;28;20021;-76
2021/11/18 02:29:06;;;;;;;26.65;5.28;;;7.60;99.90;;;;;;5053385;28;20520;-75
2021/11/18 02:31:40;;;;;;;23.10;6.15;;;7.70;99.90;;;;;;5053951;28;20079;-75
2021/11/18 02:34:14;;;;;;;22.13;5.40;;;7.70;99.90;;;;;;5053462;28;20036;-76
2021/11/18 02:36:40;;;;;;;25.10;6.07;;;7.70;99.90;;;;;;5053679;28;20048;-76
2021/11/18 02:39:07;;;;;;;28.23;5.63;;;7.70;99.90;;;;;;5053770;28;20066;-76
2021/11/18 02:41:34;;;;;;;20.05;6.50;;;7.70;99.90;;;;;;5056207;28;20022;-76
2021/11/18 02:43:59;;;;;;;23.50;7.22;;;7.70;99.90;;;;;;5053005;28;20033;-77
2021/11/18 02:46:25;;;;;;;18.63;5.10;;;7.70;99.90;;;;;;5053477;28;20079;-76
2021/11/18 02:48:51;;;;;;;22.23;5.15;;;7.80;99.90;;;;;;5053470;28;20029;-75
2021/11/18 02:51:18;;;;;;;21.73;5.75;;;7.80;99.90;;;;;;5053103;28;20501;-76
2021/11/18 02:53:46;;;;;;;26.13;5.57;;;7.90;99.90;;;;;;5055126;28;20044;-75
2021/11/18 02:56:12;;;;;;;27.90;5.70;;;7.80;99.90;;;;;;5053372;28;20039;-77
2021/11/18 02:58:38;;;;;;;24.92;6.10;;;7.80;99.90;;;;;;5053623;28;20025;-77
2021/11/18 03:01:17;;;;;;;18.17;5.47;;;7.70;99.90;;;;;;5053040;28;20024;-77
2021/11/18 03:03:46;;;;;;;27.02;5.95;;;7.80;99.90;;;;;;5052640;28;20201;-78
2021/11/18 03:06:13;;;;;;;19.75;5.68;;;7.70;99.90;;;;;;5052960;28;20045;-77
2021/11/18 03:08:39;;;;;;;22.15;6.13;;;7.70;99.90;;;;;;5053175;28;20516;-77
2021/11/18 03:11:06;;;;;;;25.40;6.55;;;7.80;99.90;;;;;;5052671;28;20047;-77
2021/11/18 03:13:32;;;;;;;26.00;6.45;;;7.90;99.90;;;;;;5053664;28;20025;-76
2021/11/18 03:15:58;;;;;;;29.35;6.07;;;7.80;99.90;;;;;;5053415;28;20483;-77
2021/11/18 03:18:25;;;;;;;23.13;5.70;;;7.80;99.90;;;;;;5052873;28;20116;-76
2021/11/18 03:20:54;;;;;;;26.77;7.15;;;7.80;99.90;;;;;;5054116;28;20538;-77
2021/11/18 03:23:20;;;;;;;15.73;6.10;;;7.80;99.90;;;;;;5054430;28;20028;-77
2021/11/18 03:25:48;;;;;;;22.70;5.85;;;7.80;99.90;;;;;;5052015;28;20028;-77
2021/11/18 03:28:14;;;;;;;26.38;6.15;;;7.90;99.90;;;;;;5052767;28;20086;-76
2021/11/18 03:30:43;;;;;;;19.27;5.28;;;7.90;99.90;;;;;;5052785;28;20107;-76
2021/11/18 03:33:13;;;;;;;28.63;6.38;;;7.90;99.90;;;;;;5052279;28;20039;-77
2021/11/18 03:35:39;;;;;;;23.75;6.82;;;7.90;99.90;;;;;;5053967;28;20033;-76
2021/11/18 03:38:05;;;;;;;26.65;6.78;;;8.00;99.90;;;;;;5055513;28;20089;-76
2021/11/18 03:40:34;;;;;;;23.83;6.50;;;8.00;99.90;;;;;;5054664;28;20467;-75
2021/11/18 03:43:00;;;;;;;18.40;5.10;;;8.00;99.90;;;;;;5052033;28;20123;-77
2021/11/18 03:45:28;;;;;;;21.13;6.45;;;8.00;99.90;;;;;;5051874;28;20603;-76
2021/11/18 03:47:54;;;;;;;23.67;5.47;;;8.10;99.90;;;;;;5052780;28;20108;-77
2021/11/18 03:50:20;;;;;;;23.30;6.15;;;8.10;99.90;;;;;;5052593;28;20541;-76
2021/11/18 03:52:46;;;;;;;25.45;6.22;;;8.20;99.90;;;;;;5051927;28;20104;-77
2021/11/18 03:55:14;;;;;;;17.98;5.65;;;8.20;99.90;;;;;;5052461;28;20461;-77
2021/11/18 03:57:40;;;;;;;22.58;6.00;;;8.20;99.90;;;;;;5052435;28;20025;-77
2021/11/18 04:00:11;;;;;;;29.25;6.55;;;8.10;99.90;;;;;;5051804;28;20523;-75
2021/11/18 04:02:37;;;;;;;20.40;6.30;;;8.10;99.90;;;;;;5052684;28;20057;-76
2021/11/18 04:05:03;;;;;;;19.50;6.00;;;8.20;99.90;;;;;;5051992;28;20493;-76
2021/11/18 04:07:35;;;;;;;23.90;7.10;;;8.20;99.90;;;;;;5051484;28;20120;-77
2021/11/18 04:10:01;;;;;;;30.02;6.07;;;8.20;99.90;;;;;;5051843;28;20494;-75
2021/11/18 04:12:26;;;;;;;31.15;6.75;;;8.20;99.90;;;;;;5053196;28;20103;-77
2021/11/18 04:14:52;;;;;;;16.88;6.35;;;8.30;99.90;;;;;;5054800;28;20377;-76
2021/11/18 04:17:17;;;;;;;21.80;5.57;;;8.30;99.90;;;;;;5051439;28;20029;-75
2021/11/18 04:19:43;;;;;;;27.83;5.68;;;8.30;99.90;;;;;;5052155;28;20024;-76
2021/11/18 04:22:10;;;;;;;22.42;5.95;;;8.30;99.90;;;;;;5051171;28;20464;-76
2021/11/18 04:24:39;;;;;;;25.55;7.40;;;8.30;99.90;;;;;;5052147;28;20511;-76
2021/11/18 04:27:05;;;;;;;23.50;6.47;;;8.30;99.90;;;;;;5051502;28;20475;-77
2021/11/18 04:29:30;;;;;;;27.42;5.63;;;8.10;99.90;;;;;;5051664;28;20032;-77
2021/11/18 04:32:04;;;;;;;19.65;5.18;;;8.10;99.90;;;;;;5051881;28;20021;-77
2021/11/18 04:34:29;;;;;;;28.58;6.65;;;8.10;99.90;;;;;;5051174;28;20029;-76
2021/11/18 04:36:55;;;;;;;23.85;6.30;;;8.00;99.90;;;;;;5051832;28;20021;-76
2021/11/18 04:39:21;;;;;;;20.05;5.38;;;8.00;99.90;;;;;;5051883;28;20416;-77
2021/11/18 04:41:47;;;;;;;28.08;6.72;;;8.00;99.90;;;;;;5051464;28;20100;-77
2021/11/18 04:44:13;;;;;;;20.38;6.15;;;8.00;99.90;;;;;;5052007;28;20404;-78
2021/11/18 04:46:39;;;;;;;21.17;7.22;;;8.00;99.90;;;;;;5051985;28;20017;-77
2021/11/18 04:49:05;;;;;;;30.48;6.75;;;8.10;99.90;;;;;;5051009;28;20033;-77
2021/11/18 04:51:31;;;;;;;26.83;7.10;;;8.00;99.90;;;;;;5051750;28;20469;-76
2021/11/18 04:53:58;;;;;;;22.88;6.03;;;8.00;99.90;;;;;;5051666;28;20032;-77
2021/11/18 04:56:24;;;;;;;34.67;6.85;;;8.00;99.90;;;;;;5054842;28;20017;-77
2021/11/18 04:58:53;;;;;;;17.25;6.82;;;8.00;99.90;;;;;;5056461;28;20017;-78
2021/11/18 05:01:19;;;;;;;19.77;5.80;;;7.90;99.90;;;;;;5055856;28;20435;-76
2021/11/18 05:03:45;;;;;;;23.48;6.85;;;7.90;99.90;;;;;;5055507;28;20029;-78
2021/11/18 05:06:12;;;;;;;20.20;6.72;;;7.90;99.90;;;;;;5055284;28;20049;-78
2021/11/18 05:08:38;;;;;;;28.20;6.15;;;7.90;99.90;;;;;;5055393;28;20033;-78
2021/11/18 05:11:03;;;;;;;23.83;5.78;;;7.80;99.90;;;;;;5054761;28;20021;-77
2021/11/18 05:13:30;;;;;;;24.33;6.80;;;7.80;99.90;;;;;;5055704;28;20033;-76
2021/11/18 05:15:59;;;;;;;19.92;6.45;;;7.80;99.90;;;;;;5055673;28;20053;-77
2021/11/18 05:18:27;;;;;;;21.20;6.53;;;7.80;99.90;;;;;;5055213;28;20036;-77
2021/11/18 05:20:56;;;;;;;28.77;6.32;;;7.80;99.90;;;;;;5055679;28;20437;-76
2021/11/18 05:23:22;;;;;;;29.15;5.68;;;7.90;99.90;;;;;;5055610;28;20017;-76
2021/11/18 05:25:48;;;;;;;30.65;7.63;;;7.90;99.90;;;;;;5054838;28;20017;-78
2021/11/18 05:28:14;;;;;;;22.67;6.60;;;7.90;99.90;;;;;;5055433;28;20498;-77
2021/11/18 05:30:40;;;;;;;22.17;5.90;;;8.00;99.90;;;;;;5054737;28;20453;-77
2021/11/18 05:33:12;;;;;;;24.67;6.63;;;8.00;99.90;;;;;;5055211;28;20025;-77
2021/11/18 05:35:38;;;;;;;18.80;6.38;;;8.00;99.90;;;;;;5056228;28;20458;-77
2021/11/18 05:38:05;;;;;;;20.13;5.28;;;8.00;99.90;;;;;;5055151;28;20029;-78
2021/11/18 05:40:32;;;;;;;25.30;6.03;;;8.00;99.90;;;;;;5056114;28;20447;-77
2021/11/18 05:42:58;;;;;;;25.30;6.22;;;8.10;99.90;;;;;;5055862;28;20430;-76
2021/11/18 05:45:27;;;;;;;25.85;7.65;;;8.10;99.90;;;;;;5055121;28;20112;-77
2021/11/18 05:47:53;;;;;;;21.27;5.82;;;8.10;99.90;;;;;;5056505;28;20029;-76
2021/11/18 05:50:20;;;;;;;23.92;6.05;;;8.10;99.90;;;;;;5056247;28;20477;-77
2021/11/18 05:52:46;;;;;;;25.38;6.80;;;8.00;99.90;;;;;;5054529;28;20501;-78
2021/11/18 05:55:15;;;;;;;28.95;5.70;;;8.10;99.90;;;;;;5054953;28;20104;-77
2021/11/18 05:57:42;;;;;;;32.75;7.70;;;8.10;99.90;;;;;;5055428;28;20031;-76
2021/11/18 06:00:11;;;;;;;22.55;5.90;;;8.10;99.90;;;;;;5055510;28;20017;-77
2021/11/18 06:02:37;;;;;;;19.30;6.68;;;8.20;99.90;;;;;;5056923;28;20029;-75
2021/11/18 06:05:04;;;;;;;21.13;6.63;;;8.10;99.90;;;;;;5054926;28;20052;-76
2021/11/18 06:07:33;;;;;;;24.15;6.40;;;8.10;99.90;;;;;;5055143;28;20032;-76
2021/11/18 06:09:59;;;;;;;23.17;6.63;;;8.10;99.90;;;;;;5052062;28;20024;-76
2021/11/18 06:12:25;;;;;;;18.20;6.25;;;8.10;99.90;;;;;;5038202;28;20037;-77
2021/11/18 06:14:52;;;;;;;29.52;7.65;;;8.10;99.90;;;;;;5040045;28;20021;-76
2021/11/18 06:17:17;;;;;;;22.13;5.60;;;8.10;99.90;;;;;;5034812;28;20036;-76
2021/11/18 06:19:43;;;;;;;19.85;6.50;;;8.00;99.90;;;;;;5041282;28;20022;-76
2021/11/18 06:22:10;;;;;;;26.40;6.40;;;8.00;99.90;;;;;;5034552;28;20036;-77
2021/11/18 06:24:36;;;;;;;23.13;6.60;;;8.10;99.90;;;;;;5035088;28;20033;-77
2021/11/18 06:27:02;;;;;;;28.23;7.22;;;8.10;99.90;;;;;;5033844;28;20112;-78
2021/11/18 06:29:30;;;;;;;29.77;7.00;;;8.10;99.90;;;;;;5036021;28;20160;-76
2021/11/18 06:31:57;;;;;;;20.70;5.85;;;8.20;99.90;;;;;;5034503;28;20025;-77
2021/11/18 06:34:24;;;;;;;36.92;7.22;;;8.10;99.90;;;;;;5036293;28;21503;-76
2021/11/18 06:36:50;;;;;;;14.93;5.70;;;8.00;99.90;;;;;;5037315;28;20041;-77
2021/11/18 06:39:15;;;;;;;16.38;6.47;;;8.00;99.90;;;;;;5037946;28;20424;-76
2021/11/18 06:41:42;;;;;;;27.48;6.78;;;7.90;99.90;;;;;;5035894;28;20063;-77
2021/11/18 06:44:09;;;;;;;24.10;6.40;;;7.90;99.90;;;;;;5035780;28;20122;-77
2021/11/18 06:46:35;;;;;;;19.02;6.13;;;7.80;99.90;;;;;;5036310;28;20101;-77
2021/11/18 06:49:01;;;;;;;22.27;6.30;;;7.80;99.90;;;;;;5036024;28;20033;-77
2021/11/18 06:51:27;;;;;;;17.48;6.10;;;7.80;99.90;;;;;;5037939;28;20029;-77
2021/11/18 06:53:57;;;;;;;29.65;7.05;;;7.80;99.90;;;;;;5036359;28;20029;-76
2021/11/18 06:56:25;;;;;;;34.00;9.52;;;7.90;99.90;;;;;;5032440;28;20481;-76
2021/11/18 06:58:51;;;;;;;34.15;7.63;;;7.80;99.90;;;;;;5032332;28;20044;-77
2021/11/18 07:01:17;;;;;;;23.17;6.75;;;7.90;99.90;;;;;;5039879;28;20021;-76
2021/11/18 07:03:43;;;;;;;30.30;6.93;;;7.90;99.90;;;;;;5041178;28;20542;-77
2021/11/18 07:06:12;;;;;;;19.73;6.60;;;8.00;99.90;;;;;;5052074;28;20049;-77
2021/11/18 07:08:38;;;;;;;23.02;7.45;;;8.00;99.90;;;;;;5050280;28;20112;-77
2021/11/18 07:11:05;;;;;;;24.88;6.65;;;8.00;99.90;;;;;;5052184;28;20021;-76
2021/11/18 07:13:32;;;;;;;24.23;7.20;;;8.00;99.90;;;;;;5052248;28;20060;-77
2021/11/18 07:16:02;;;;;;;20.42;7.15;;;8.00;99.90;;;;;;5052771;28;20066;-78
2021/11/18 07:18:28;;;;;;;25.02;6.75;;;8.00;99.90;;;;;;5058109;28;20041;-78
2021/11/18 07:21:01;;;;;;;27.00;7.25;;;8.10;99.90;;;;;;5053780;28;20025;-77
2021/11/18 07:23:26;;;;;;;18.15;5.90;;;8.10;99.90;;;;;;5052857;28;20063;-78
2021/11/18 07:25:55;;;;;;;22.27;6.20;;;8.10;99.90;;;;;;5052852;28;20075;-77
2021/11/18 07:28:23;;;;;;;24.27;7.13;;;8.20;99.90;;;;;;5053099;28;20028;-78
2021/11/18 07:30:49;;;;;;;26.35;7.40;;;8.20;99.90;;;;;;5052859;28;20029;-78
2021/11/18 07:33:17;;;;;;;17.15;6.82;;;8.20;99.90;;;;;;5049563;28;20025;-77
2021/11/18 07:35:44;;;;;;;19.80;6.43;;;8.20;99.90;;;;;;5052322;28;20479;-81
2021/11/18 07:38:10;;;;;;;30.98;6.85;;;8.10;99.90;;;;;;5051304;28;20032;-83
2021/11/18 07:40:37;;;;;;;22.30;7.65;;;8.20;99.90;;;;;;5052356;28;20021;-85
2021/11/18 07:43:07;;;;;;;29.40;6.40;;;8.20;99.90;;;;;;5051828;28;20033;-83
2021/11/18 07:45:33;;;;;;;26.88;7.07;;;8.30;99.90;;;;;;5051519;28;20029;-81
2021/11/18 07:47:59;;;;;;;23.23;7.22;;;8.30;99.90;;;;;;5050456;28;20047;-82
2021/11/18 07:50:25;;;;;;;18.40;6.78;;;8.30;99.90;;;;;;5049749;28;20105;-79
2021/11/18 07:52:50;;;;;;;22.58;6.60;;;8.30;99.90;;;;;;5051532;28;20025;-82
2021/11/18 07:55:20;;;;;;;31.10;8.05;;;8.30;99.90;;;;;;5052700;28;20021;-82
2021/11/18 07:57:46;;;;;;;23.08;6.68;;;8.40;99.90;;;;;;5053209;28;20025;-81
2021/11/18 08:00:13;;;;;;;39.47;7.05;;;8.30;99.90;;;;;;5051794;28;20070;-80
2021/11/18 08:02:40;;;;;;;22.17;6.85;;;8.30;99.90;;;;;;5045099;28;20041;-82
2021/11/18 08:05:07;;;;;;;27.73;7.65;;;8.40;99.90;;;;;;5052906;28;20400;-83
2021/11/18 08:07:33;;;;;;;24.40;7.10;;;8.40;99.90;;;;;;5054169;28;20044;-84
2021/11/18 08:09:59;;;;;;;28.63;8.00;;;8.40;99.90;;;;;;5055015;28;20025;-85
2021/11/18 08:12:25;;;;;;;28.17;7.15;;;8.40;99.90;;;;;;5058118;28;20071;-83
2021/11/18 08:14:50;;;;;;;34.78;9.50;;;8.50;99.90;;;;;;5055848;28;20021;-83
2021/11/18 08:17:16;;;;;;;28.35;8.25;;;8.40;99.90;;;;;;5055687;28;20438;-83
2021/11/18 08:19:42;;;;;;;20.83;7.70;;;8.40;99.90;;;;;;5053874;28;20028;-82
2021/11/18 08:22:08;;;;;;;21.33;7.88;;;8.40;99.90;;;;;;5054088;28;20028;-77
2021/11/18 08:24:34;;;;;;;28.65;6.78;;;8.50;99.90;;;;;;5055565;28;20021;-81
2021/11/18 08:27:00;;;;;;;24.67;7.70;;;8.50;99.90;;;;;;5049588;28;20036;-83
2021/11/18 08:29:28;;;;;;;24.00;9.32;;;8.50;99.90;;;;;;5054895;28;20049;-81
2021/11/18 08:31:56;;;;;;;24.60;7.28;;;8.50;99.90;;;;;;5060286;28;20033;-82
2021/11/18 08:34:22;;;;;;;31.77;7.80;;;8.40;99.90;;;;;;5059006;28;20021;-82
2021/11/18 08:36:50;;;;;;;27.48;8.38;;;8.50;99.90;;;;;;5056826;28;20063;-83
2021/11/18 08:39:22;;;;;;;29.63;8.15;;;8.60;99.90;;;;;;5053337;28;20485;-76
2021/11/18 08:41:49;;;;;;;23.08;7.68;;;8.50;99.90;;;;;;5052313;28;20067;-77
2021/11/18 08:44:16;;;;;;;24.85;7.43;;;9.80;99.90;;;;;;5049038;28;20067;-79
2021/11/18 08:46:43;;;;;;;25.90;7.55;;;8.50;99.90;;;;;;5055466;28;20029;-82
2021/11/18 08:49:12;;;;;;;29.90;7.97;;;8.50;99.90;;;;;;5051711;28;20056;-82
2021/11/18 08:51:37;;;;;;;30.25;7.63;;;8.60;99.90;;;;;;5054935;28;20017;-79
2021/11/18 08:54:06;;;;;;;25.52;7.85;;;8.60;99.90;;;;;;5051866;28;20025;-77
2021/11/18 08:56:33;;;;;;;23.30;8.07;;;8.70;99.90;;;;;;5051073;28;20021;-80
2021/11/18 08:58:59;;;;;;;22.23;6.85;;;8.80;99.90;;;;;;5052885;28;20044;-82
2021/11/18 09:01:44;;;;;;;31.10;7.80;;;8.80;99.90;;;;;;5052546;28;20115;-83
2021/11/18 09:04:16;;;;;;;24.02;7.15;;;8.90;99.90;;;;;;5052906;28;20105;-81
2021/11/18 09:06:43;;;;;;;43.33;9.52;;;9.00;99.90;;;;;;5055263;28;20017;-83
2021/11/18 09:09:10;;;;;;;34.75;7.85;;;9.10;99.90;;;;;;5054311;28;20490;-82
2021/11/18 09:11:37;;;;;;;19.55;7.93;;;9.20;99.90;;;;;;5053386;28;20114;-82
2021/11/18 09:14:04;;;;;;;27.55;7.78;;;9.30;99.90;;;;;;5052270;28;20032;-83
2021/11/18 09:16:32;;;;;;;21.65;7.50;;;9.30;99.90;;;;;;5052283;28;20021;-82
2021/11/18 09:18:57;;;;;;;20.65;6.60;;;9.40;99.90;;;;;;5051990;28;20032;-81
2021/11/18 09:21:25;;;;;;;24.42;6.95;;;9.50;99.90;;;;;;5050940;28;20469;-82
2021/11/18 09:24:05;;;;;;;24.60;7.20;;;9.40;99.90;;;;;;5047742;28;20028;-83
2021/11/18 09:26:33;;;;;;;27.13;6.63;;;9.40;99.90;;;;;;5048672;28;20036;-81
2021/11/18 09:28:59;;;;;;;25.33;6.60;;;9.50;99.90;;;;;;5050633;28;20327;-82
2021/11/18 09:31:27;;;;;;;26.48;7.45;;;9.50;99.90;;;;;;5052670;28;20057;-82
2021/11/18 09:33:54;;;;;;;37.95;7.32;;;9.50;99.90;;;;;;5053032;28;20393;-82
2021/11/18 09:36:22;;;;;;;31.80;6.93;;;9.40;99.90;;;;;;5053166;28;20055;-83
2021/11/18 09:38:50;;;;;;;25.00;6.22;;;9.40;99.90;;;;;;5056788;28;20044;-83
2021/11/18 09:41:36;;;;;;;14.90;5.45;;;9.50;99.90;;;;;;5058110;28;20032;-84
2021/11/18 09:44:40;;;;;;;27.20;7.65;;;9.50;99.90;;;;;;5055926;28;20060;-83
2021/11/18 09:47:13;;;;;;;29.17;7.75;;;9.50;99.90;;;;;;5050015;28;20118;-83
2021/11/18 09:50:01;;;;;;;20.35;6.80;;;9.60;99.90;;;;;;5054611;28;20052;-84
2021/11/18 09:52:52;;;;;;;26.20;7.32;;;9.70;99.90;;;;;;5048713;28;20025;-83
2021/11/18 09:55:32;;;;;;;29.05;7.53;;;9.80;99.90;;;;;;5051260;28;20460;-83
2021/11/18 09:58:15;;;;;;;23.60;5.72;;;9.80;99.90;;;;;;5052284;28;20017;-83
2021/11/18 10:01:04;;;;;;;28.10;7.05;;;9.90;99.90;;;;;;5054352;28;20388;-83
2021/11/18 10:03:45;;;;;;;33.88;7.68;;;9.90;99.90;;;;;;5053521;28;20020;-84
2021/11/18 10:06:28;;;;;;;17.08;6.47;;;9.80;99.90;;;;;;5055509;28;20064;-84
2021/11/18 10:08:57;;;;;;;30.17;6.90;;;9.80;99.90;;;;;;5056498;28;20033;-84
2021/11/18 10:11:54;;;;;;;34.05;7.57;;;9.90;99.90;;;;;;5056578;28;20033;-83
2021/11/18 10:14:51;;;;;;;20.70;6.20;;;10.00;99.90;;;;;;5042930;28;20025;-84
2021/11/18 10:17:41;;;;;;;28.83;6.75;;;10.10;99.90;;;;;;5056199;28;20377;-83
2021/11/18 10:20:30;;;;;;;22.60;6.85;;;10.10;99.90;;;;;;5055665;28;20443;-83
2021/11/18 10:23:11;;;;;;;26.33;7.22;;;10.10;99.90;;;;;;5072779;28;20025;-83
2021/11/18 10:25:51;;;;;;;30.30;8.75;;;10.20;99.90;;;;;;5057259;28;20087;-83
2021/11/18 10:28:19;;;;;;;28.10;6.82;;;10.20;99.90;;;;;;5055130;28;20043;-83
2021/11/18 10:31:10;;;;;;;24.60;7.03;;;10.20;99.90;;;;;;5060728;28;20472;-82
2021/11/18 10:33:53;;;;;;;20.88;7.22;;;10.30;99.90;;;;;;5055250;28;20470;-83
2021/11/18 10:36:33;;;;;;;22.38;8.05;;;10.30;99.90;;;;;;5056670;28;20110;-83
2021/11/18 10:39:38;;;;;;;22.65;8.13;;;10.30;99.90;;;;;;5058428;28;20033;-82
2021/11/18 10:42:18;;;;;;;20.13;7.85;;;10.40;99.90;;;;;;5058784;28;20535;-82
2021/11/18 10:44:51;;;;;;;28.98;8.60;;;10.50;99.90;;;;;;5057318;28;20163;-83
2021/11/18 10:47:40;;;;;;;23.98;6.68;;;10.50;99.90;;;;;;5046256;28;20050;-80
2021/11/18 10:50:26;;;;;;;22.05;7.10;;;10.60;99.90;;;;;;5051155;28;20040;-80
2021/11/18 10:53:04;;;;;;;20.73;6.07;;;10.60;99.90;;;;;;5059179;28;20496;-83
2021/11/18 10:55:39;;;;;;;27.30;7.20;;;10.70;99.90;;;;;;5051607;28;20114;-81
2021/11/18 10:58:04;;;;;;;25.15;6.72;;;10.70;99.90;;;;;;5046448;28;20021;-82
2021/11/18 11:00:40;;;;;;;20.60;6.93;;;10.70;99.90;;;;;;5050288;28;20131;-82
2021/11/18 11:03:22;;;;;;;16.30;6.68;;;10.70;99.90;;;;;;5056164;28;20633;-83
2021/11/18 11:06:06;;;;;;;29.17;7.25;;;10.70;99.90;;;;;;5053709;28;20044;-82
2021/11/18 11:08:32;;;;;;;23.13;7.20;;;10.70;99.90;;;;;;5052171;28;20268;-82
2021/11/18 11:11:03;;;;;;;20.25;6.65;;;10.80;99.90;;;;;;5059142;28;20020;-82
2021/11/18 11:13:46;;;;;;;26.75;8.10;;;10.80;99.90;;;;;;5056007;28;20055;-82
2021/11/18 11:16:40;;;;;;;22.83;7.57;;;10.90;99.90;;;;;;5054847;28;20049;-81
2021/11/18 11:19:42;;;;;;;21.58;6.78;;;11.00;99.90;;;;;;5056573;28;20017;-81
2021/11/18 11:22:57;;;;;;;18.27;6.32;;;11.00;99.90;;;;;;5029060;28;20026;-82
2021/11/18 11:25:44;;;;;;;25.15;7.50;;;11.10;99.90;;;;;;5019934;28;20122;-81
2021/11/18 11:28:19;;;;;;;24.77;6.95;;;11.10;99.90;;;;;;5061866;28;20036;-82
2021/11/18 11:31:14;;;;;;;29.13;7.22;;;11.20;99.90;;;;;;5058653;28;20071;-80
2021/11/18 11:33:48;;;;;;;19.67;6.07;;;11.20;99.90;;;;;;5054658;28;20112;-82
2021/11/18 11:36:47;;;;;;;23.75;6.47;;;11.30;99.90;;;;;;5056537;28;20140;-81
2021/11/18 11:39:56;;;;;;;26.42;6.32;;;11.30;99.90;;;;;;5057408;28;20488;-81
2021/11/18 11:42:56;;;;;;;20.92;6.78;;;11.40;99.90;;;;;;5001203;28;20033;-81
2021/11/18 11:45:46;;;;;;;21.08;5.80;;;11.40;99.90;;;;;;5057786;28;20550;-80
2021/11/18 11:48:30;;;;;;;;;;;11.50;99.90;;;;;;5051663;28;20040;-82
2021/11/18 11:51:20;;;;;;;21.40;5.95;;;11.50;99.90;;;;;;5042829;28;19908;-81
2021/11/18 11:54:10;;;;;;;27.58;6.35;;;11.50;99.90;;;;;;5061751;28;20056;-81
2021/11/18 11:56:42;;;;;;;33.05;9.25;;;11.50;99.90;;;;;;5058585;28;20031;-81
2021/11/18 11:59:18;;;;;;;21.60;7.00;;;11.60;99.90;;;;;;5050861;28;20033;-81
2021/11/18 12:02:10;;;;;;;28.70;6.15;;;11.60;99.90;;;;;;5053049;28;20350;-81
2021/11/18 12:04:39;;;;;;;26.65;6.68;;;11.60;99.90;;;;;;5049800;28;20052;-81
2021/11/18 12:07:25;;;;;;;23.98;6.90;;;11.60;99.90;;;;;;5047881;28;20083;-82
2021/11/18 12:10:12;;;;;;;22.40;5.93;;;11.60;99.90;;;;;;5046818;28;20025;-81
2021/11/18 12:12:46;;;;;;;23.55;6.72;;;11.60;99.90;;;;;;5050420;28;20020;-82
2021/11/18 12:15:15;;;;;;;24.33;6.97;;;11.60;99.90;;;;;;5050382;28;20033;-81
2021/11/18 12:18:05;;;;;;;26.75;6.93;;;11.60;99.90;;;;;;5052197;28;20024;-82
2021/11/18 12:20:36;;;;;;;20.23;5.73;;;11.60;99.90;;;;;;5053208;28;20025;-80
2021/11/18 12:23:09;;;;;;;19.52;6.53;;;11.60;99.90;;;;;;5051469;28;20029;-81
2021/11/18 12:26:01;;;;;;;25.48;5.82;;;11.70;99.90;;;;;;5052930;28;20064;-81
2021/11/18 12:28:32;;;;;;;21.73;5.47;;;11.80;99.90;;;;;;5053785;28;20434;-81
2021/11/18 12:31:03;;;;;;;35.28;6.05;;;11.80;99.90;;;;;;5053508;28;20017;-81
2021/11/18 12:33:30;;;;;;;27.10;6.28;;;11.90;99.90;;;;;;5052986;28;20040;-81
2021/11/18 12:36:47;;;;;;;19.30;5.30;;;11.90;99.90;;;;;;5053700;28;20036;-81
2021/11/18 12:39:37;;;;;;;22.65;5.90;;;11.90;99.90;;;;;;5053298;28;20028;-80
2021/11/18 12:42:31;;;;;;;19.90;5.55;;;11.90;99.90;;;;;;5053083;28;20017;-82
2021/11/18 12:45:21;;;;;;;16.98;4.80;;;11.90;99.90;;;;;;5041158;28;20037;-81
2021/11/18 12:47:47;;;;;;;18.55;4.60;;;11.80;99.90;;;;;;5055321;28;20120;-81
2021/11/18 12:50:43;;;;;;;20.10;6.15;;;11.90;99.90;;;;;;5056089;28;20508;-81
2021/11/18 12:53:11;;;;;;;25.55;4.82;;;11.80;99.90;;;;;;5053627;28;20028;-82
2021/11/18 12:55:52;;;;;;;19.65;4.38;;;11.90;99.90;;;;;;5052306;28;20052;-80
2021/11/18 12:58:26;;;;;;;18.17;5.00;;;11.90;99.90;;;;;;5052529;28;20020;-81
2021/11/18 13:01:01;;;;;;;29.95;5.45;;;11.90;99.90;;;;;;5057855;28;20082;-83
2021/11/18 13:03:51;;;;;;;27.55;6.50;;;11.90;99.90;;;;;;5053325;28;20088;-81
2021/11/18 13:06:29;;;;;;;29.90;5.28;;;11.90;99.90;;;;;;5052151;28;20056;-81